Time;durP1;ratioP1;P1;durP2;ratioP2;P2;SDS_P1;SDS_P2;PMS_P1;PMS_P2;Temp;Humidity;BMP_temperature;BMP_pressure;BME280_temperature;BME280_humidity;BME280_pressure;Samples;Min_cycle;Max_cycle;Signal;HPM_P1;HPM_P2
2022/10/09 00:09:21;;;;;;;;;;;;;;;;;;;;;
2022/10/09 00:11:47;;;;;;;12.63;8.43;;;9.50;1.00;;;;;;6262193;22;20470;-86
2022/10/09 00:14:15;;;;;;;12.20;7.50;;;9.50;1.00;;;;;;6275248;22;20411;-86
2022/10/09 00:16:43;;;;;;;9.63;7.23;;;9.50;1.00;;;;;;6248346;22;20664;-85
2022/10/09 00:19:18;;;;;;;11.70;7.20;;;9.60;1.00;;;;;;6273453;22;20379;-86
2022/10/09 00:21:45;;;;;;;17.85;7.22;;;9.50;1.00;;;;;;6275534;22;20373;-86
2022/10/09 00:24:11;;;;;;;10.43;6.00;;;9.50;1.00;;;;;;6245978;22;20180;-87
2022/10/09 00:26:39;;;;;;;9.90;6.67;;;9.50;1.00;;;;;;6275716;22;20375;-86
2022/10/09 00:29:14;;;;;;;11.23;6.40;;;9.40;27.40;;;;;;6275363;22;20172;-85
2022/10/09 00:31:42;;;;;;;13.30;7.00;;;9.40;41.30;;;;;;6275739;22;20386;-86
2022/10/09 00:34:08;;;;;;;10.83;7.60;;;9.40;99.90;;;;;;6246297;22;20413;-86
2022/10/09 00:36:43;;;;;;;8.43;7.50;;;9.30;99.90;;;;;;6275505;22;20375;-85
2022/10/09 00:39:08;;;;;;;8.83;6.60;;;9.30;99.90;;;;;;6246855;22;20217;-85
2022/10/09 00:41:41;;;;;;;13.37;8.10;;;9.30;99.90;;;;;;6274804;22;20375;-85
2022/10/09 00:44:47;;;;;;;14.07;7.15;;;9.30;99.90;;;;;;6275598;22;20258;-86
2022/10/09 00:47:29;;;;;;;8.70;6.77;;;9.20;1.00;;;;;;6248656;22;20152;-86
2022/10/09 00:50:25;;;;;;;13.30;7.10;;;9.20;99.90;;;;;;6275369;22;20486;-85
2022/10/09 00:53:09;;;;;;;9.45;7.90;;;9.10;1.00;;;;;;6275611;22;20140;-85
2022/10/09 00:55:37;;;;;;;12.25;8.13;;;9.10;1.00;;;;;;6249066;22;20156;-85
2022/10/09 00:58:13;;;;;;;9.40;6.78;;;9.10;1.00;;;;;;6248242;22;20474;-86
2022/10/09 01:00:39;;;;;;;13.32;6.65;;;9.10;1.00;;;;;;6275799;22;20179;-85
2022/10/09 01:03:05;;;;;;;14.60;7.03;;;9.10;1.00;;;;;;6247838;22;20210;-86
2022/10/09 01:05:48;;;;;;;10.00;7.00;;;9.10;1.00;;;;;;6276109;22;20180;-86
2022/10/09 01:08:22;;;;;;;9.90;6.60;;;9.00;1.00;;;;;;6273712;22;20664;-85
2022/10/09 01:11:05;;;;;;;9.40;6.55;;;9.00;1.00;;;;;;6274099;22;20171;-86
2022/10/09 01:14:19;;;;;;;10.90;6.70;;;9.00;1.00;;;;;;6247634;22;20197;-86
2022/10/09 01:16:57;;;;;;;11.45;6.43;;;9.00;1.00;;;;;;6247650;22;20450;-86
2022/10/09 01:20:04;;;;;;;11.70;6.32;;;8.90;1.00;;;;;;6276015;22;20182;-86
2022/10/09 01:22:43;;;;;;;9.57;6.83;;;8.90;1.00;;;;;;6249217;22;20227;-86
2022/10/09 01:25:25;;;;;;;8.43;6.35;;;8.90;1.00;;;;;;6274233;22;20490;-86
2022/10/09 01:27:51;;;;;;;13.27;7.25;;;8.80;1.00;;;;;;6246837;22;20144;-85
2022/10/09 01:30:19;;;;;;;12.23;7.00;;;8.80;1.00;;;;;;6274115;22;20174;-86
2022/10/09 01:32:51;;;;;;;10.30;6.13;;;8.80;1.00;;;;;;6274248;22;20226;-85
2022/10/09 01:35:22;;;;;;;8.80;5.88;;;8.80;1.00;;;;;;6275643;22;20208;-86
2022/10/09 01:37:52;;;;;;;10.32;5.82;;;8.80;1.00;;;;;;6248275;22;20217;-86
2022/10/09 01:40:55;;;;;;;13.48;6.50;;;8.80;62.00;;;;;;6247829;22;20214;-85
2022/10/09 01:43:23;;;;;;;11.75;6.18;;;8.80;90.60;;;;;;6248240;22;20159;-86
2022/10/09 01:45:51;;;;;;;8.50;5.82;;;8.80;6.20;;;;;;6274757;22;20184;-86
2022/10/09 01:48:31;;;;;;;7.93;5.78;;;8.70;99.90;;;;;;6273754;22;20151;-86
2022/10/09 01:51:05;;;;;;;10.88;6.35;;;8.60;99.90;;;;;;6274838;22;20198;-86
2022/10/09 01:53:35;;;;;;;9.57;6.32;;;8.70;99.90;;;;;;6247976;22;20255;-85
2022/10/09 01:56:18;;;;;;;7.30;5.20;;;8.60;99.90;;;;;;6248321;22;20475;-86
2022/10/09 01:58:56;;;;;;;9.80;6.15;;;8.60;99.90;;;;;;6273234;22;20548;-86
2022/10/09 02:01:32;;;;;;;8.05;5.78;;;8.60;99.90;;;;;;6275287;22;20230;-86
2022/10/09 02:04:04;;;;;;;13.07;5.88;;;8.60;21.60;;;;;;6273184;22;20145;-86
2022/10/09 02:06:43;;;;;;;9.52;5.80;;;8.50;90.40;;;;;;6275538;22;20207;-85
2022/10/09 02:09:15;;;;;;;9.23;5.38;;;8.50;98.00;;;;;;6275059;22;20139;-85
2022/10/09 02:11:47;;;;;;;15.60;5.18;;;8.40;99.90;;;;;;6275443;22;20579;-86
2022/10/09 02:14:15;;;;;;;14.63;6.38;;;8.40;99.90;;;;;;6274224;22;20143;-85
2022/10/09 02:16:44;;;;;;;7.97;5.25;;;8.40;99.90;;;;;;6275545;22;20156;-87
2022/10/09 02:19:23;;;;;;;8.77;6.10;;;8.40;99.90;;;;;;6246507;22;20156;-86
2022/10/09 02:22:15;;;;;;;11.13;6.47;;;8.30;99.90;;;;;;6275933;22;20171;-86
2022/10/09 02:24:41;;;;;;;7.65;5.72;;;8.30;1.00;;;;;;6250491;22;20212;-85
2022/10/09 02:27:08;;;;;;;6.13;5.35;;;8.30;99.90;;;;;;6248395;22;20692;-85
2022/10/09 02:29:44;;;;;;;6.78;5.10;;;8.20;99.90;;;;;;6288683;22;20186;-85
2022/10/09 02:32:11;;;;;;;10.60;5.82;;;8.20;99.90;;;;;;6289070;22;20207;-87
2022/10/09 02:34:39;;;;;;;9.27;4.93;;;8.20;99.90;;;;;;6274304;22;20598;-86
2022/10/09 02:37:05;;;;;;;7.57;6.28;;;8.20;99.90;;;;;;6246380;22;20164;-85
2022/10/09 02:39:31;;;;;;;9.80;6.32;;;8.20;99.90;;;;;;6246705;22;20268;-86
2022/10/09 02:42:04;;;;;;;10.70;7.10;;;8.20;99.90;;;;;;6274741;22;20172;-86
2022/10/09 02:44:29;;;;;;;10.40;6.18;;;8.20;99.90;;;;;;6274306;22;20243;-84
2022/10/09 02:46:55;;;;;;;9.63;6.50;;;8.20;1.00;;;;;;6273112;22;20178;-86
2022/10/09 02:49:40;;;;;;;9.43;7.07;;;8.20;1.00;;;;;;6246286;22;20179;-85
2022/10/09 02:52:08;;;;;;;8.27;6.55;;;8.20;1.00;;;;;;6245640;22;20639;-86
2022/10/09 02:54:34;;;;;;;15.55;7.47;;;8.20;1.00;;;;;;6247166;22;20163;-86
2022/10/09 02:57:12;;;;;;;;;;;;;;;;;;;;;
2022/10/09 03:00:09;;;;;;;11.23;6.95;;;8.20;1.00;;;;;;6274502;22;20597;-86
2022/10/09 03:03:23;;;;;;;11.82;7.18;;;8.10;99.90;;;;;;6273684;22;20163;-85
2022/10/09 03:09:45;;;;;;;;;;;;;;;;;;;;;
2022/10/09 03:12:20;;;;;;;;;;;;;;;;;;;;;
2022/10/09 03:27:40;;;;;;;;;;;;;;;;;;;;;
2022/10/09 03:30:43;;;;;;;;;;;;;;;;;;;;;
2022/10/09 03:33:58;;;;;;;13.43;6.55;;;7.70;1.00;;;;;;6266211;22;20227;-85
2022/10/09 03:36:44;;;;;;;18.63;6.47;;;7.80;1.00;;;;;;6230216;22;20528;-85
2022/10/09 03:39:22;;;;;;;;;;;;;;;;;;;;;
2022/10/09 03:45:04;;;;;;;;;;;;;;;;;;;;;
2022/10/09 03:48:03;;;;;;;;;;;;;;;;;;;;;
2022/10/09 03:54:34;;;;;;;;;;;;;;;;;;;;;
2022/10/09 04:00:41;;;;;;;;;;;;;;;;;;;;;
2022/10/09 04:03:44;;;;;;;13.00;6.75;;;7.40;99.90;;;;;;6268103;22;20235;-85
2022/10/09 04:06:27;;;;;;;11.57;6.53;;;7.40;99.90;;;;;;6247405;22;20574;-85
2022/10/09 04:12:26;;;;;;;9.70;6.70;;;7.40;99.90;;;;;;6262289;22;20688;-85
2022/10/09 04:14:51;;;;;;;14.50;6.25;;;7.40;99.90;;;;;;6272515;22;20266;-85
2022/10/09 04:17:17;;;;;;;6.07;5.47;;;7.40;84.50;;;;;;6272568;22;20157;-86
2022/10/09 04:19:47;;;;;;;8.30;5.73;;;7.40;1.00;;;;;;6274029;22;20180;-85
2022/10/09 04:22:15;;;;;;;9.75;6.40;;;7.40;1.00;;;;;;6274983;22;20247;-86
2022/10/09 04:24:40;;;;;;;10.05;6.35;;;7.40;1.00;;;;;;6277667;22;20499;-86
2022/10/09 04:27:08;;;;;;;10.10;7.70;;;7.30;99.90;;;;;;6249588;22;20156;-86
2022/10/09 04:29:33;;;;;;;8.52;6.18;;;7.30;99.90;;;;;;6275876;22;20547;-86
2022/10/09 04:32:01;;;;;;;15.70;7.30;;;7.30;99.90;;;;;;6276539;22;20227;-86
2022/10/09 04:34:36;;;;;;;10.15;6.65;;;7.20;99.90;;;;;;6249039;22;20183;-86
2022/10/09 04:37:06;;;;;;;15.23;7.80;;;7.20;1.00;;;;;;6275872;22;20156;-85
2022/10/09 04:39:32;;;;;;;16.17;6.72;;;7.20;99.90;;;;;;6277663;22;20214;-86
2022/10/09 04:41:57;;;;;;;13.40;7.30;;;7.20;99.90;;;;;;6250073;22;20148;-86
2022/10/09 04:44:35;;;;;;;;;;;;;;;;;;;;;
2022/10/09 04:47:04;;;;;;;11.05;6.85;;;7.10;1.00;;;;;;6275870;22;20256;-87
2022/10/09 04:49:29;;;;;;;7.35;6.60;;;7.10;99.90;;;;;;6249581;22;20178;-86
2022/10/09 04:51:57;;;;;;;13.57;7.40;;;7.10;1.00;;;;;;6276586;22;20606;-86
2022/10/09 04:54:27;;;;;;;7.22;5.90;;;7.10;99.90;;;;;;6248851;22;20212;-86
2022/10/09 04:56:55;;;;;;;13.43;6.07;;;7.10;99.90;;;;;;6276372;22;20886;-86
2022/10/09 04:59:28;;;;;;;10.27;5.68;;;7.10;99.90;;;;;;6249609;22;20179;-86
2022/10/09 05:05:53;;;;;;;;;;;;;;;;;;;;;
2022/10/09 05:08:37;;;;;;;8.90;5.25;;;7.10;1.00;;;;;;6263062;22;20161;-86
2022/10/09 05:11:26;;;;;;;7.30;4.95;;;7.00;1.00;;;;;;6276673;22;20831;-85
2022/10/09 05:18:05;;;;;;;;;;;;;;;;;;;;;
2022/10/09 05:20:23;;;;;;;9.95;8.00;;;7.00;28.20;;;;;;6274101;22;20195;-85
2022/10/09 05:23:09;;;;;;;;;;;;;;;;;;;;;
2022/10/09 05:26:36;;;;;;;14.57;7.70;;;7.10;1.00;;;;;;6283114;22;20152;-85
2022/10/09 05:29:11;;;;;;;;;;;;;;;;;;;;;
2022/10/09 05:32:35;;;;;;;;;;;;;;;;;;;;;
2022/10/09 05:35:07;;;;;;;10.88;6.90;;;7.20;99.90;;;;;;6276466;22;20263;-85
2022/10/09 05:37:32;;;;;;;14.80;7.13;;;7.20;99.90;;;;;;6255808;22;20223;-87
2022/10/09 05:40:02;;;;;;;15.30;8.10;;;7.20;99.90;;;;;;6280722;22;20194;-85
2022/10/09 05:42:30;;;;;;;9.48;6.50;;;7.20;1.00;;;;;;6283564;22;20151;-85
2022/10/09 05:44:58;;;;;;;16.38;7.20;;;7.10;1.00;;;;;;6280989;22;20162;-85
2022/10/09 05:47:23;;;;;;;10.18;6.63;;;7.10;1.00;;;;;;6255975;22;20160;-85
2022/10/09 05:49:54;;;;;;;11.00;7.80;;;7.10;1.00;;;;;;6283700;22;20218;-84
2022/10/09 05:52:20;;;;;;;11.52;6.28;;;7.00;1.00;;;;;;6284513;22;20140;-86
2022/10/09 05:54:49;;;;;;;10.50;7.43;;;7.00;1.00;;;;;;6283361;22;20642;-85
2022/10/09 05:57:28;;;;;;;9.65;6.10;;;7.10;1.00;;;;;;6282218;22;20175;-86
2022/10/09 05:59:53;;;;;;;11.48;7.25;;;7.10;1.00;;;;;;6281426;22;20436;-86
2022/10/09 06:02:27;;;;;;;13.70;7.10;;;7.20;1.00;;;;;;6282256;22;20231;-86
2022/10/09 06:04:55;;;;;;;12.65;7.25;;;7.20;1.00;;;;;;6293729;22;20140;-86
2022/10/09 06:07:25;;;;;;;16.05;6.45;;;7.30;1.00;;;;;;6292678;22;20179;-85
2022/10/09 06:09:53;;;;;;;9.00;6.70;;;7.30;99.90;;;;;;6251288;22;20179;-86
2022/10/09 06:12:33;;;;;;;14.43;6.72;;;7.50;99.90;;;;;;6278189;22;20155;-85
2022/10/09 06:15:06;;;;;;;9.90;5.93;;;7.60;99.90;;;;;;6278405;22;20164;-85
2022/10/09 06:17:50;;;;;;;13.40;6.65;;;7.60;2.40;;;;;;6250878;22;20147;-85
2022/10/09 06:20:15;;;;;;;11.15;5.80;;;7.70;1.00;;;;;;6250392;22;20184;-86
2022/10/09 06:22:43;;;;;;;11.50;5.80;;;7.70;1.00;;;;;;6279384;22;20189;-85
2022/10/09 06:25:11;;;;;;;9.52;5.97;;;7.80;99.90;;;;;;6251280;22;20163;-85
2022/10/09 06:27:44;;;;;;;9.40;5.55;;;7.90;99.90;;;;;;6279659;22;20152;-85
2022/10/09 06:30:10;;;;;;;7.85;6.20;;;8.00;99.90;;;;;;6249653;22;20180;-85
2022/10/09 06:32:35;;;;;;;16.23;6.60;;;8.10;1.00;;;;;;6279098;22;20152;-85
2022/10/09 06:35:01;;;;;;;10.10;5.73;;;8.20;99.90;;;;;;6250992;22;20426;-85
2022/10/09 06:37:29;;;;;;;7.00;5.80;;;10.30;99.90;;;;;;6247983;22;20251;-85
2022/10/09 06:39:58;;;;;;;7.10;4.63;;;13.60;99.90;;;;;;6248060;22;20540;-87
2022/10/09 06:42:28;;;;;;;7.07;4.30;;;16.60;99.90;;;;;;6248116;22;20868;-86
2022/10/09 06:44:53;;;;;;;6.80;4.47;;;19.10;99.90;;;;;;6274733;22;20392;-86
2022/10/09 06:47:21;;;;;;;5.70;3.43;;;21.20;99.90;;;;;;6273488;22;20412;-86
2022/10/09 06:59:53;;;;;;;;;;;;;;;;;;;;;
2022/10/09 07:02:31;;;;;;;;;;;;;;;;;;;;;
2022/10/09 07:09:02;;;;;;;;;;;;;;;;;;;;;
2022/10/09 07:11:55;;;;;;;7.97;3.53;;;31.50;99.90;;;;;;6274670;22;20451;-88
2022/10/09 07:14:38;;;;;;;7.80;3.03;;;32.10;99.90;;;;;;6256540;22;20414;-87
2022/10/09 07:17:44;;;;;;;8.57;2.77;;;32.50;99.90;;;;;;6274651;22;20450;-86
2022/10/09 07:20:38;;;;;;;;;;;;;;;;;;;;;
2022/10/09 07:24:03;;;;;;;;;;;;;;;;;;;;;
2022/10/09 07:26:31;;;;;;;7.77;5.93;;;33.60;99.90;;;;;;6266715;22;20470;-85
2022/10/09 07:29:02;;;;;;;8.60;4.30;;;34.50;99.90;;;;;;6273828;22;20804;-85
2022/10/09 07:31:27;;;;;;;6.23;3.20;;;35.00;99.90;;;;;;6274185;22;20845;-85
2022/10/09 07:33:55;;;;;;;6.27;2.73;;;35.30;99.90;;;;;;6274437;22;20367;-85
2022/10/09 07:36:28;;;;;;;7.73;3.10;;;35.60;99.90;;;;;;6247891;22;20179;-85
2022/10/09 07:38:56;;;;;;;4.93;3.10;;;36.20;99.10;;;;;;6245818;22;20378;-85
2022/10/09 07:41:25;;;;;;;4.63;2.87;;;36.20;95.30;;;;;;6273552;22;20478;-86
2022/10/09 07:46:45;;;;;;;4.70;3.13;;;36.00;90.60;;;;;;6253576;22;20703;-87
2022/10/09 07:49:30;;;;;;;4.77;2.80;;;36.00;83.90;;;;;;6273932;22;20429;-85
2022/10/09 07:52:21;;;;;;;5.77;2.80;;;36.20;79.80;;;;;;6274798;22;20604;-84
2022/10/09 08:14:34;;;;;;;6.00;3.00;;;36.60;54.40;;;;;;6263927;22;20379;-88
2022/10/09 08:17:02;;;;;;;6.73;3.07;;;37.20;53.70;;;;;;6248698;22;20547;-87
2022/10/09 08:19:58;;;;;;;;;;;;;;;;;;;;;
2022/10/09 08:23:10;;;;;;;7.97;3.17;;;37.00;30.70;;;;;;6258633;22;20469;-87
2022/10/09 08:33:19;;;;;;;7.93;4.73;;;35.50;25.50;;;;;;6257246;22;20379;-87
2022/10/09 08:39:17;;;;;;;8.10;3.00;;;35.00;23.30;;;;;;6195956;22;20387;-88
2022/10/09 08:41:48;;;;;;;6.17;3.90;;;35.50;24.10;;;;;;6275445;22;20359;-88
2022/10/09 08:44:22;;;;;;;6.77;5.20;;;35.60;23.20;;;;;;6274667;22;20390;-88
2022/10/09 08:46:58;;;;;;;4.23;3.37;;;35.60;22.60;;;;;;6247981;22;20389;-88
2022/10/09 08:52:40;;;;;;;5.50;3.90;;;35.10;21.70;;;;;;6259230;22;20830;-88
2022/10/09 08:55:20;;;;;;;6.67;3.23;;;35.10;20.10;;;;;;6274816;22;20370;-88
2022/10/09 08:57:55;;;;;;;6.30;2.90;;;35.00;19.60;;;;;;6275154;22;20370;-88
2022/10/09 09:00:35;;;;;;;;;;;;;;;;;;;;;
2022/10/09 09:03:31;;;;;;;6.00;3.63;;;34.80;19.80;;;;;;6274373;22;20446;-89
2022/10/09 09:06:37;;;;;;;7.70;3.30;;;34.30;18.60;;;;;;6275009;22;20414;-88
2022/10/09 09:09:36;;;;;;;6.67;3.50;;;34.50;19.10;;;;;;6275477;22;20374;-87
2022/10/09 09:12:36;;;;;;;;;;;;;;;;;;;;;
2022/10/09 09:15:41;;;;;;;6.00;3.40;;;34.60;19.20;;;;;;6276057;22;20442;-87
2022/10/09 09:18:47;;;;;;;8.13;3.30;;;34.70;18.70;;;;;;6275832;22;20365;-88
2022/10/09 09:21:26;;;;;;;4.50;3.37;;;35.10;20.00;;;;;;6123634;23;20415;-88
2022/10/09 09:23:52;;;;;;;4.73;3.03;;;35.10;19.20;;;;;;6124474;23;20562;-88
2022/10/09 09:26:22;;;;;;;6.60;3.63;;;34.90;18.20;;;;;;6181509;22;20434;-88
2022/10/09 09:28:54;;;;;;;4.83;3.23;;;34.60;17.20;;;;;;6276644;22;20152;-88
2022/10/09 09:31:28;;;;;;;5.50;3.20;;;34.30;16.80;;;;;;6277124;22;20433;-88
2022/10/09 09:34:09;;;;;;;5.00;3.33;;;34.10;17.20;;;;;;6249435;22;20390;-87
2022/10/09 09:36:47;;;;;;;5.80;2.80;;;34.40;17.70;;;;;;6249450;22;20405;-88
2022/10/09 09:40:04;;;;;;;6.70;2.90;;;34.80;18.90;;;;;;6248845;22;20379;-87
2022/10/09 09:43:11;;;;;;;;;;;;;;;;;;;;;
2022/10/09 09:45:47;;;;;;;5.83;3.10;;;34.40;16.80;;;;;;6261013;22;20493;-88
2022/10/09 09:48:41;;;;;;;8.90;3.13;;;34.00;15.80;;;;;;6274951;22;20350;-87
2022/10/09 09:51:27;;;;;;;4.90;3.13;;;33.30;14.70;;;;;;6249698;22;20409;-87
2022/10/09 09:54:15;;;;;;;5.60;3.10;;;32.70;14.30;;;;;;6248028;22;20395;-87
2022/10/09 09:56:58;;;;;;;3.70;3.07;;;32.00;13.60;;;;;;6247666;22;20837;-86
2022/10/09 09:59:36;;;;;;;4.67;2.73;;;31.80;14.20;;;;;;6247153;22;20399;-88
2022/10/09 10:02:18;;;;;;;7.23;3.03;;;31.60;14.10;;;;;;6247586;22;20829;-88
2022/10/09 10:11:34;;;;;;;7.87;2.90;;;31.70;16.30;;;;;;6260264;22;20394;-87
2022/10/09 10:14:11;;;;;;;4.90;2.80;;;31.30;15.50;;;;;;6273160;22;20375;-86
2022/10/09 10:16:40;;;;;;;8.90;2.90;;;31.30;15.80;;;;;;6244664;22;20947;-88
2022/10/09 10:19:20;;;;;;;3.50;2.20;;;31.30;15.90;;;;;;6273509;22;20363;-87
2022/10/09 10:21:48;;;;;;;4.90;2.70;;;32.00;17.80;;;;;;6273747;22;20412;-87
2022/10/09 10:24:35;;;;;;;2.93;1.77;;;32.30;18.20;;;;;;6245320;22;20382;-87
2022/10/09 10:27:21;;;;;;;3.63;2.53;;;32.70;18.70;;;;;;6246615;22;20884;-87
2022/10/09 10:29:51;;;;;;;9.33;2.70;;;32.50;18.40;;;;;;6273172;22;20383;-87
2022/10/09 10:32:21;;;;;;;4.40;2.10;;;32.30;18.10;;;;;;6247245;22;21027;-87
2022/10/09 10:35:06;;;;;;;6.33;2.53;;;32.70;18.60;;;;;;6248265;22;20378;-87
2022/10/09 10:38:00;;;;;;;2.80;1.90;;;32.70;18.70;;;;;;6247642;22;20855;-87
2022/10/09 10:40:32;;;;;;;3.80;2.13;;;32.90;19.30;;;;;;6245986;22;20407;-87
2022/10/09 10:43:12;;;;;;;6.43;2.07;;;32.50;17.80;;;;;;6274869;22;20371;-87
2022/10/09 10:46:01;;;;;;;3.70;1.70;;;32.40;17.80;;;;;;6245646;22;20425;-87
2022/10/09 10:48:33;;;;;;;5.53;2.13;;;32.30;17.90;;;;;;6274813;22;20424;-87
2022/10/09 10:51:28;;;;;;;6.07;2.07;;;32.50;18.30;;;;;;6245724;22;20758;-86
2022/10/09 10:54:11;;;;;;;4.20;2.00;;;32.40;18.00;;;;;;6274741;22;20940;-86
2022/10/09 10:56:41;;;;;;;4.97;2.30;;;33.00;19.00;;;;;;6245072;22;20367;-87
2022/10/09 10:59:09;;;;;;;4.00;2.17;;;33.30;19.40;;;;;;6273532;22;20422;-87
2022/10/09 11:01:47;;;;;;;4.70;2.30;;;33.20;18.40;;;;;;6246461;22;20864;-87
2022/10/09 11:04:42;;;;;;;4.63;1.90;;;32.70;17.70;;;;;;6246660;22;20375;-87
2022/10/09 11:07:22;;;;;;;5.73;2.37;;;32.60;17.40;;;;;;6240947;22;20383;-87
2022/10/09 11:10:18;;;;;;;6.67;2.53;;;32.30;16.80;;;;;;6271822;22;20476;-87
2022/10/09 11:12:49;;;;;;;3.90;2.20;;;31.80;16.20;;;;;;6272449;22;20363;-87
2022/10/09 11:15:30;;;;;;;7.07;5.03;;;31.80;17.10;;;;;;6273696;22;20371;-86
2022/10/09 11:17:58;;;;;;;3.70;2.50;;;31.80;17.10;;;;;;6246100;22;20367;-86
2022/10/09 11:20:33;;;;;;;3.93;2.30;;;32.00;17.50;;;;;;6272855;22;20407;-87
2022/10/09 11:23:47;;;;;;;;;;;;;;;;;;;;;
2022/10/09 11:27:00;;;;;;;5.37;2.13;;;31.70;17.70;;;;;;6273303;22;20505;-87
2022/10/09 11:29:50;;;;;;;3.00;2.23;;;31.70;17.20;;;;;;6233237;22;20403;-85
2022/10/09 11:32:23;;;;;;;5.17;2.07;;;31.80;18.00;;;;;;6275144;22;20355;-85
2022/10/09 11:35:00;;;;;;;3.23;1.73;;;31.60;17.60;;;;;;6276407;22;20379;-87
2022/10/09 11:37:38;;;;;;;2.90;1.73;;;31.90;18.50;;;;;;6276485;22;20402;-87
2022/10/09 11:40:21;;;;;;;3.73;2.00;;;31.80;18.10;;;;;;6248963;22;20468;-87
2022/10/09 11:43:20;;;;;;;5.53;2.43;;;31.80;18.50;;;;;;6248272;22;20860;-87
2022/10/09 11:49:38;;;;;;;4.00;2.80;;;31.50;17.30;;;;;;6254837;22;20857;-87
2022/10/09 11:52:19;;;;;;;6.03;2.40;;;31.70;17.50;;;;;;6249085;22;20379;-87
2022/10/09 11:55:03;;;;;;;;;;;;;;;;;;;;;
2022/10/09 11:58:18;;;;;;;;;;;;;;;;;;;;;
2022/10/09 12:01:43;;;;;;;;;;;;;;;;;;;;;
2022/10/09 12:04:22;;;;;;;;;;;;;;;;;;;;;
2022/10/09 12:11:29;;;;;;;9.53;1.90;;;31.40;17.90;;;;;;6176489;23;20413;-86
2022/10/09 12:14:35;;;;;;;4.33;2.17;;;31.20;16.40;;;;;;6157260;23;20909;-87
2022/10/09 12:21:18;;;;;;;4.93;2.10;;;30.10;14.30;;;;;;6255731;22;20939;-86
2022/10/09 12:23:56;;;;;;;;;;;;;;;;;;;;;
2022/10/09 12:27:02;;;;;;;7.10;1.93;;;29.90;14.70;;;;;;6277707;22;21170;-87
2022/10/09 12:33:37;;;;;;;;;;;;;;;;;;;;;
2022/10/09 12:37:09;;;;;;;;;;;;;;;;;;;;;
2022/10/09 12:43:05;;;;;;;4.63;0.93;;;28.80;12.20;;;;;;6279351;22;20701;-86
2022/10/09 12:55:07;;;;;;;2.20;1.00;;;28.60;10.60;;;;;;6254513;22;20432;-86
2022/10/09 12:58:06;;;;;;;;;;;;;;;;;;;;;
2022/10/09 13:00:35;;;;;;;2.60;1.10;;;27.70;7.30;;;;;;6263191;22;20485;-86
2022/10/09 13:03:03;;;;;;;5.43;1.70;;;27.50;7.40;;;;;;6248004;22;20379;-86
2022/10/09 13:05:42;;;;;;;3.00;1.10;;;27.40;6.80;;;;;;6275270;22;20972;-86
2022/10/09 13:08:49;;;;;;;5.00;1.53;;;27.10;6.90;;;;;;6273596;22;21056;-86
2022/10/09 13:11:39;;;;;;;3.77;1.20;;;26.90;7.60;;;;;;6270777;22;20791;-86
2022/10/09 13:14:40;;;;;;;4.73;1.37;;;26.80;7.20;;;;;;6275951;22;20356;-86
2022/10/09 13:17:25;;;;;;;4.50;1.50;;;26.50;6.90;;;;;;6122187;23;20948;-86
2022/10/09 13:20:03;;;;;;;4.70;1.40;;;26.30;6.60;;;;;;6235099;22;20426;-86
2022/10/09 20:29:22;;;;;;;6.47;3.70;;;12.70;99.90;;;;;;6277375;22;20419;-87
2022/10/09 20:34:53;;;;;;;6.30;4.07;;;12.60;99.90;;;;;;6255744;22;20418;-86
2022/10/09 20:37:32;;;;;;;5.33;3.03;;;12.60;99.90;;;;;;6277459;22;20422;-87
2022/10/09 20:39:57;;;;;;;6.60;5.10;;;12.60;99.90;;;;;;6248819;22;20156;-87
2022/10/09 20:42:35;;;;;;;;;;;;;;;;;;;;;
2022/10/09 20:45:01;;;;;;;5.10;2.63;;;12.50;99.90;;;;;;6277192;22;20212;-86
2022/10/09 20:47:27;;;;;;;9.20;6.10;;;12.50;99.90;;;;;;6277552;22;20390;-87
2022/10/09 20:49:55;;;;;;;13.30;8.93;;;12.50;99.90;;;;;;6275193;22;20235;-87
2022/10/09 20:52:22;;;;;;;9.63;5.27;;;12.50;99.90;;;;;;6248326;22;20183;-86
2022/10/09 20:54:55;;;;;;;7.90;3.70;;;12.50;99.90;;;;;;6275927;22;20910;-87
2022/10/09 20:57:24;;;;;;;5.63;3.60;;;12.50;99.90;;;;;;6275458;22;20372;-85
2022/10/09 20:59:55;;;;;;;8.40;5.53;;;12.50;99.90;;;;;;6276190;22;20700;-87
2022/10/09 21:02:23;;;;;;;4.93;2.93;;;12.50;99.90;;;;;;6276982;22;20383;-87
2022/10/09 21:05:09;;;;;;;7.90;5.20;;;12.50;99.90;;;;;;6277057;22;20470;-86
2022/10/09 21:07:37;;;;;;;7.70;5.00;;;12.50;99.90;;;;;;6277115;22;20386;-86
2022/10/09 21:10:10;;;;;;;5.60;3.70;;;12.50;99.90;;;;;;6249179;22;20379;-86
2022/10/09 21:12:36;;;;;;;7.27;4.87;;;12.50;99.90;;;;;;6250730;22;20414;-86
2022/10/09 21:15:03;;;;;;;8.77;4.47;;;12.50;99.90;;;;;;6248264;22;20447;-87
2022/10/09 21:17:34;;;;;;;9.60;4.43;;;12.50;99.90;;;;;;6276608;22;20180;-87
2022/10/09 21:20:02;;;;;;;11.80;7.53;;;12.40;99.90;;;;;;6276585;22;20839;-87
2022/10/09 21:22:33;;;;;;;7.23;4.10;;;12.40;99.90;;;;;;6277245;22;20470;-87
2022/10/09 21:24:58;;;;;;;8.83;4.60;;;12.40;99.90;;;;;;6277018;22;20697;-87
2022/10/09 21:27:29;;;;;;;4.40;3.00;;;12.30;99.90;;;;;;6249398;22;20444;-86
2022/10/09 21:29:54;;;;;;;16.60;7.17;;;12.30;99.90;;;;;;6249213;22;20289;-86
2022/10/09 21:32:30;;;;;;;11.97;4.60;;;12.30;99.90;;;;;;6250339;22;20427;-86
2022/10/09 21:34:56;;;;;;;11.37;5.10;;;12.20;99.90;;;;;;6275524;22;20168;-86
2022/10/09 21:37:24;;;;;;;12.43;6.33;;;12.20;99.90;;;;;;6249378;22;20460;-87
2022/10/09 21:39:50;;;;;;;12.90;4.63;;;12.20;99.90;;;;;;6276791;22;20883;-87
2022/10/09 21:42:15;;;;;;;7.67;4.93;;;12.10;99.90;;;;;;6276423;22;20402;-87
2022/10/09 21:44:43;;;;;;;3.53;3.10;;;12.10;99.90;;;;;;6249596;22;20152;-86
2022/10/09 21:47:33;;;;;;;;;;;;;;;;;;;;;
2022/10/09 21:53:30;;;;;;;11.57;6.40;;;12.00;99.90;;;;;;6215408;22;20437;-86
2022/10/09 21:56:54;;;;;;;;;;;;;;;;;;;;;
2022/10/09 21:59:29;;;;;;;4.27;3.10;;;11.90;99.90;;;;;;6276916;22;20866;-87
2022/10/09 22:02:37;;;;;;;8.93;4.67;;;11.90;99.90;;;;;;6275253;22;20922;-86
2022/10/09 22:05:42;;;;;;;;;;;;;;;;;;;;;
2022/10/09 22:08:44;;;;;;;4.43;3.20;;;11.80;99.90;;;;;;6262940;22;20379;-88
2022/10/09 22:11:28;;;;;;;;;;;;;;;;;;;;;
2022/10/09 22:14:33;;;;;;;;;;;;;;;;;;;;;
2022/10/09 22:37:01;;;;;;;4.63;3.53;;;11.50;1.00;;;;;;6247473;22;20437;-87
2022/10/09 22:40:09;;;;;;;4.70;3.20;;;11.50;1.00;;;;;;6274896;22;20750;-88
2022/10/09 22:42:35;;;;;;;5.30;3.77;;;11.40;1.00;;;;;;6233551;22;20442;-87
2022/10/09 22:52:17;;;;;;;;;;;;;;;;;;;;;
2022/10/09 22:55:02;;;;;;;;;;;;;;;;;;;;;
2022/10/09 23:01:47;;;;;;;;;;;;;;;;;;;;;
2022/10/09 23:27:47;;;;;;;;;;;;;;;;;;;;;
2022/10/09 23:37:31;;;;;;;;;;;;;;;;;;;;;
2022/10/09 23:44:19;;;;;;;5.40;3.67;;;10.90;99.90;;;;;;6262007;22;21195;-87
2022/10/09 23:47:14;;;;;;;3.93;3.30;;;10.90;99.90;;;;;;6271004;22;20379;-87
2022/10/09 23:49:59;;;;;;;;;;;;;;;;;;;;;
2022/10/09 23:52:57;;;;;;;;;;;;;;;;;;;;;
2022/10/09 23:59:30;;;;;;;4.47;3.13;;;10.70;99.90;;;;;;6255707;22;20387;-87
